Buckland Airport
PABL : now visible

Airfield :











YOU CAN JOIN US ON...

 
LOGIN :

Register | Disclaimer

   EN    FR    IT 

 









Legend :    VFR   Marginal VFR   IFR   Intensive IFR   Very Intensive IFR
Visi :
Ceiling :
>= 8 km
>= 3000ft
5 to 8 km
1000 to 3000 ft
1500m to 5 km
500 to 1000 ft
800 to 1500m
200 to 500 ft
< 800m
< 200 ft
Symbols :   Thunderstorms  Fog  Heavy snow  Heavy precipitations  Wind > 20 kt






- Airport Elevation : 31 ft
- IATA code : BVK


PABL - Buckland

CURRENT METAR :
  • 050256Z AUTO 17009KT 10SM BKN070 17/08 A2994 RMK AO2 RAB11E28 SLP141 P0000 60000 T01670083 53002

EXPIRED METARs :
  • 050156Z AUTO 15005KT 10SM SCT047 16/10 A2993 RMK AO2 RAE04B20E38 SLP137 P0000 T01610100
  • 050056Z AUTO 17004KT 10SM -RA CLR 16/09 A2993 RMK AO2 RAB07 SLP137 P0000 T01610089

TAF N/A
PAZA FIR / North America



MET'MAP, your aeronautical weather chart ! - Copyright ORBIFLY December 2007 - Disclaimer

ORBIFLY MET'MAP TEAM :

Programming & Development : Alexandra Zaïnal
Concept & original design : Baudouin d'Aumeries
Assistance for programming : Marc-Olivier Méhu
Technical & hardware support : Manuel Goepfert

Contact : metmap@orbifly.com




SOURCES & CREDITS :

   NOAA       Earth
Advisory